sensor_id;sensor_type;location;lat;lon;timestamp;P1;P2;P0
64861;PMS5003;62652;42.274;-71.436;2023-03-01T00:00:00;18.17;17.07;10.97
64861;PMS5003;62652;42.274;-71.436;2023-03-01T00:01:01;20.07;18.83;11.07
64861;PMS5003;62652;42.274;-71.436;2023-03-01T00:02:00;21.13;19.63;11.87
64861;PMS5003;62652;42.274;-71.436;2023-03-01T00:03:00;16.70;15.50;10.30
64861;PMS5003;62652;42.274;-71.436;2023-03-01T00:04:00;18.67;17.30;10.80
64861;PMS5003;62652;42.274;-71.436;2023-03-01T00:05:00;20.17;18.73;11.27
64861;PMS5003;62652;42.274;-71.436;2023-03-01T00:06:00;20.00;18.17;12.07
64861;PMS5003;62652;42.274;-71.436;2023-03-01T00:07:00;21.03;20.33;11.17
64861;PMS5003;62652;42.274;-71.436;2023-03-01T00:08:00;19.00;18.13;12.10
64861;PMS5003;62652;42.274;-71.436;2023-03-01T00:09:00;22.63;20.73;12.10
64861;PMS5003;62652;42.274;-71.436;2023-03-01T00:10:00;21.80;21.57;13.53
64861;PMS5003;62652;42.274;-71.436;2023-03-01T00:11:01;21.60;20.93;14.73
64861;PMS5003;62652;42.274;-71.436;2023-03-01T00:12:00;21.97;19.83;12.13
64861;PMS5003;62652;42.274;-71.436;2023-03-01T00:13:00;21.23;19.23;12.37
64861;PMS5003;62652;42.274;-71.436;2023-03-01T00:14:01;20.47;19.70;11.73
64861;PMS5003;62652;42.274;-71.436;2023-03-01T00:15:00;16.70;16.60;11.00
64861;PMS5003;62652;42.274;-71.436;2023-03-01T00:16:01;15.90;15.10;9.13
64861;PMS5003;62652;42.274;-71.436;2023-03-01T00:17:00;16.13;15.23;9.93
64861;PMS5003;62652;42.274;-71.436;2023-03-01T00:18:00;16.67;15.70;9.83
64861;PMS5003;62652;42.274;-71.436;2023-03-01T00:19:00;17.67;15.93;9.97
64861;PMS5003;62652;42.274;-71.436;2023-03-01T00:20:00;17.17;15.37;9.03
64861;PMS5003;62652;42.274;-71.436;2023-03-01T00:21:00;18.07;15.57;10.87
64861;PMS5003;62652;42.274;-71.436;2023-03-01T00:22:00;17.87;17.13;11.63
64861;PMS5003;62652;42.274;-71.436;2023-03-01T00:23:00;16.63;15.07;9.80
64861;PMS5003;62652;42.274;-71.436;2023-03-01T00:24:00;16.83;16.23;9.80
64861;PMS5003;62652;42.274;-71.436;2023-03-01T00:25:00;19.17;16.30;12.00
64861;PMS5003;62652;42.274;-71.436;2023-03-01T00:26:00;17.60;16.00;9.87
64861;PMS5003;62652;42.274;-71.436;2023-03-01T00:27:00;15.77;15.23;10.47
64861;PMS5003;62652;42.274;-71.436;2023-03-01T00:28:00;19.50;16.50;10.90
64861;PMS5003;62652;42.274;-71.436;2023-03-01T00:29:00;14.73;14.73;11.43
64861;PMS5003;62652;42.274;-71.436;2023-03-01T00:30:00;19.30;17.80;11.17
64861;PMS5003;62652;42.274;-71.436;2023-03-01T00:31:02;16.60;14.57;10.97
64861;PMS5003;62652;42.274;-71.436;2023-03-01T00:32:00;19.63;15.80;10.87
64861;PMS5003;62652;42.274;-71.436;2023-03-01T00:33:00;20.27;19.90;11.53
64861;PMS5003;62652;42.274;-71.436;2023-03-01T00:34:01;17.87;15.33;11.80
64861;PMS5003;62652;42.274;-71.436;2023-03-01T00:35:00;18.90;17.33;12.00
64861;PMS5003;62652;42.274;-71.436;2023-03-01T00:36:00;18.70;16.33;11.80
64861;PMS5003;62652;42.274;-71.436;2023-03-01T00:37:00;18.33;18.13;11.03
64861;PMS5003;62652;42.274;-71.436;2023-03-01T00:38:00;15.83;14.77;10.33
64861;PMS5003;62652;42.274;-71.436;2023-03-01T00:39:00;18.33;17.40;12.57
64861;PMS5003;62652;42.274;-71.436;2023-03-01T00:40:00;17.07;16.10;11.73
64861;PMS5003;62652;42.274;-71.436;2023-03-01T00:41:02;24.20;21.27;13.10
64861;PMS5003;62652;42.274;-71.436;2023-03-01T00:42:00;22.73;19.33;11.27
64861;PMS5003;62652;42.274;-71.436;2023-03-01T00:43:00;18.97;17.47;12.07
64861;PMS5003;62652;42.274;-71.436;2023-03-01T00:44:00;19.03;19.03;12.40
64861;PMS5003;62652;42.274;-71.436;2023-03-01T00:45:00;16.67;16.40;10.47
64861;PMS5003;62652;42.274;-71.436;2023-03-01T00:46:01;15.37;14.47;10.00
64861;PMS5003;62652;42.274;-71.436;2023-03-01T00:47:00;15.50;15.23;10.17
64861;PMS5003;62652;42.274;-71.436;2023-03-01T00:48:00;18.47;16.97;11.03
64861;PMS5003;62652;42.274;-71.436;2023-03-01T00:49:00;18.87;17.77;11.63
64861;PMS5003;62652;42.274;-71.436;2023-03-01T00:50:00;18.87;17.83;11.57
64861;PMS5003;62652;42.274;-71.436;2023-03-01T00:51:04;18.00;16.10;10.97
64861;PMS5003;62652;42.274;-71.436;2023-03-01T00:52:00;20.17;17.27;11.50
64861;PMS5003;62652;42.274;-71.436;2023-03-01T00:53:00;22.73;22.07;15.67
64861;PMS5003;62652;42.274;-71.436;2023-03-01T00:54:01;23.80;22.70;12.93
64861;PMS5003;62652;42.274;-71.436;2023-03-01T00:55:00;20.60;20.10;13.10
64861;PMS5003;62652;42.274;-71.436;2023-03-01T00:56:00;19.40;17.87;11.70
64861;PMS5003;62652;42.274;-71.436;2023-03-01T00:57:00;20.17;19.03;10.80
64861;PMS5003;62652;42.274;-71.436;2023-03-01T00:58:00;18.93;18.43;11.37
64861;PMS5003;62652;42.274;-71.436;2023-03-01T00:59:00;18.77;17.07;11.50
64861;PMS5003;62652;42.274;-71.436;2023-03-01T01:00:00;23.10;20.50;11.73
64861;PMS5003;62652;42.274;-71.436;2023-03-01T01:01:00;18.53;16.43;11.17
64861;PMS5003;62652;42.274;-71.436;2023-03-01T01:02:00;19.87;19.30;12.43
64861;PMS5003;62652;42.274;-71.436;2023-03-01T01:03:00;18.90;16.43;11.37
64861;PMS5003;62652;42.274;-71.436;2023-03-01T01:04:01;18.97;17.93;10.97
64861;PMS5003;62652;42.274;-71.436;2023-03-01T01:05:00;20.47;18.97;11.77
64861;PMS5003;62652;42.274;-71.436;2023-03-01T01:06:00;18.80;16.60;10.50
64861;PMS5003;62652;42.274;-71.436;2023-03-01T01:07:00;20.27;18.33;11.47
64861;PMS5003;62652;42.274;-71.436;2023-03-01T01:08:00;21.13;19.03;11.83
64861;PMS5003;62652;42.274;-71.436;2023-03-01T01:09:00;20.97;19.57;12.17
64861;PMS5003;62652;42.274;-71.436;2023-03-01T01:10:00;20.80;20.20;12.13
64861;PMS5003;62652;42.274;-71.436;2023-03-01T01:11:00;15.73;15.03;9.73
64861;PMS5003;62652;42.274;-71.436;2023-03-01T01:12:00;22.67;19.23;10.93
64861;PMS5003;62652;42.274;-71.436;2023-03-01T01:13:00;16.63;14.87;10.43
64861;PMS5003;62652;42.274;-71.436;2023-03-01T01:14:00;21.40;18.53;11.53
64861;PMS5003;62652;42.274;-71.436;2023-03-01T01:15:00;19.20;17.80;11.37
64861;PMS5003;62652;42.274;-71.436;2023-03-01T01:16:00;21.67;19.83;13.10
64861;PMS5003;62652;42.274;-71.436;2023-03-01T01:17:00;17.93;16.40;11.30
64861;PMS5003;62652;42.274;-71.436;2023-03-01T01:18:00;21.97;20.13;12.40
64861;PMS5003;62652;42.274;-71.436;2023-03-01T01:19:00;22.23;20.70;13.10
64861;PMS5003;62652;42.274;-71.436;2023-03-01T01:20:00;22.07;20.07;11.90
64861;PMS5003;62652;42.274;-71.436;2023-03-01T01:21:03;21.07;19.10;11.30
64861;PMS5003;62652;42.274;-71.436;2023-03-01T01:22:00;20.97;19.67;12.30
64861;PMS5003;62652;42.274;-71.436;2023-03-01T01:23:00;21.23;19.13;12.83
64861;PMS5003;62652;42.274;-71.436;2023-03-01T01:24:02;20.00;19.37;12.70
64861;PMS5003;62652;42.274;-71.436;2023-03-01T01:25:00;21.63;20.20;13.37
64861;PMS5003;62652;42.274;-71.436;2023-03-01T01:26:04;20.80;18.60;11.73
64861;PMS5003;62652;42.274;-71.436;2023-03-01T01:27:00;18.97;17.43;11.27
64861;PMS5003;62652;42.274;-71.436;2023-03-01T01:28:00;20.10;18.60;12.37
64861;PMS5003;62652;42.274;-71.436;2023-03-01T01:29:01;23.03;22.07;13.33
64861;PMS5003;62652;42.274;-71.436;2023-03-01T01:30:00;21.10;20.57;12.40
64861;PMS5003;62652;42.274;-71.436;2023-03-01T01:31:00;27.80;21.77;12.40
64861;PMS5003;62652;42.274;-71.436;2023-03-01T01:32:00;19.83;18.60;11.80
64861;PMS5003;62652;42.274;-71.436;2023-03-01T01:33:00;21.87;21.20;14.17
64861;PMS5003;62652;42.274;-71.436;2023-03-01T01:34:01;21.40;20.13;12.83
64861;PMS5003;62652;42.274;-71.436;2023-03-01T01:35:00;22.97;19.97;12.57
64861;PMS5003;62652;42.274;-71.436;2023-03-01T01:36:00;24.83;23.33;13.33
64861;PMS5003;62652;42.274;-71.436;2023-03-01T01:37:00;19.70;18.83;13.20
64861;PMS5003;62652;42.274;-71.436;2023-03-01T01:38:00;22.80;21.80;12.20
64861;PMS5003;62652;42.274;-71.436;2023-03-01T01:39:00;25.80;23.03;14.37
64861;PMS5003;62652;42.274;-71.436;2023-03-01T01:40:00;23.50;20.33;13.00
64861;PMS5003;62652;42.274;-71.436;2023-03-01T01:41:00;23.17;20.40;14.57
64861;PMS5003;62652;42.274;-71.436;2023-03-01T01:42:00;25.03;23.27;13.97
64861;PMS5003;62652;42.274;-71.436;2023-03-01T01:43:00;23.50;22.50;14.23
64861;PMS5003;62652;42.274;-71.436;2023-03-01T01:46:01;23.63;21.73;14.00
64861;PMS5003;62652;42.274;-71.436;2023-03-01T01:47:00;22.13;21.43;12.93
64861;PMS5003;62652;42.274;-71.436;2023-03-01T01:48:02;24.07;22.87;13.93
64861;PMS5003;62652;42.274;-71.436;2023-03-01T01:49:01;22.57;21.00;12.77
64861;PMS5003;62652;42.274;-71.436;2023-03-01T01:50:00;24.50;22.47;13.27
64861;PMS5003;62652;42.274;-71.436;2023-03-01T01:51:00;20.97;20.97;14.27
64861;PMS5003;62652;42.274;-71.436;2023-03-01T01:52:03;19.80;17.90;10.83
64861;PMS5003;62652;42.274;-71.436;2023-03-01T01:53:00;15.50;14.57;8.47
64861;PMS5003;62652;42.274;-71.436;2023-03-01T01:54:00;17.27;16.13;11.20
64861;PMS5003;62652;42.274;-71.436;2023-03-01T01:55:02;19.60;18.57;12.13
64861;PMS5003;62652;42.274;-71.436;2023-03-01T01:56:00;22.13;18.63;13.03
64861;PMS5003;62652;42.274;-71.436;2023-03-01T01:57:01;22.50;21.53;13.13
64861;PMS5003;62652;42.274;-71.436;2023-03-01T01:58:02;22.23;21.13;14.03
64861;PMS5003;62652;42.274;-71.436;2023-03-01T01:59:00;22.93;21.60;14.00
64861;PMS5003;62652;42.274;-71.436;2023-03-01T02:00:03;23.83;22.73;13.97
64861;PMS5003;62652;42.274;-71.436;2023-03-01T02:01:00;22.97;22.63;14.57
64861;PMS5003;62652;42.274;-71.436;2023-03-01T02:02:01;23.43;21.87;14.23
64861;PMS5003;62652;42.274;-71.436;2023-03-01T02:03:02;22.90;20.53;13.27
64861;PMS5003;62652;42.274;-71.436;2023-03-01T02:04:00;22.87;21.83;12.90
64861;PMS5003;62652;42.274;-71.436;2023-03-01T02:05:01;24.37;22.13;12.90
64861;PMS5003;62652;42.274;-71.436;2023-03-01T02:06:01;22.60;20.10;11.93
64861;PMS5003;62652;42.274;-71.436;2023-03-01T02:07:01;15.73;15.40;10.00
64861;PMS5003;62652;42.274;-71.436;2023-03-01T02:08:00;18.83;16.87;12.57
64861;PMS5003;62652;42.274;-71.436;2023-03-01T02:09:02;17.93;16.83;11.93
64861;PMS5003;62652;42.274;-71.436;2023-03-01T02:10:00;19.33;18.57;11.40
64861;PMS5003;62652;42.274;-71.436;2023-03-01T02:11:00;20.77;20.20;12.37
64861;PMS5003;62652;42.274;-71.436;2023-03-01T02:12:00;19.40;18.90;11.73
64861;PMS5003;62652;42.274;-71.436;2023-03-01T02:13:00;22.23;21.13;13.93
64861;PMS5003;62652;42.274;-71.436;2023-03-01T02:14:00;20.43;19.13;12.20
64861;PMS5003;62652;42.274;-71.436;2023-03-01T02:15:00;21.73;21.17;13.20
64861;PMS5003;62652;42.274;-71.436;2023-03-01T02:16:02;21.10;20.23;12.40
64861;PMS5003;62652;42.274;-71.436;2023-03-01T02:17:00;17.13;16.50;10.97
64861;PMS5003;62652;42.274;-71.436;2023-03-01T02:18:00;20.57;19.60;11.47
64861;PMS5003;62652;42.274;-71.436;2023-03-01T02:19:00;20.23;19.33;11.67
64861;PMS5003;62652;42.274;-71.436;2023-03-01T02:20:04;18.97;18.93;10.80
64861;PMS5003;62652;42.274;-71.436;2023-03-01T02:21:04;20.43;18.87;11.63
64861;PMS5003;62652;42.274;-71.436;2023-03-01T02:22:02;20.67;19.67;12.73
64861;PMS5003;62652;42.274;-71.436;2023-03-01T02:23:00;24.93;23.77;14.10
64861;PMS5003;62652;42.274;-71.436;2023-03-01T02:24:02;22.67;19.90;12.97
64861;PMS5003;62652;42.274;-71.436;2023-03-01T02:25:03;22.33;21.63;13.00
64861;PMS5003;62652;42.274;-71.436;2023-03-01T02:26:01;21.30;19.50;12.90
64861;PMS5003;62652;42.274;-71.436;2023-03-01T02:27:00;23.43;22.07;13.73
64861;PMS5003;62652;42.274;-71.436;2023-03-01T02:29:00;20.03;16.50;12.17
64861;PMS5003;62652;42.274;-71.436;2023-03-01T02:30:00;20.77;18.27;11.80
64861;PMS5003;62652;42.274;-71.436;2023-03-01T02:31:00;16.43;15.87;9.83
64861;PMS5003;62652;42.274;-71.436;2023-03-01T02:32:00;19.47;16.83;10.23
64861;PMS5003;62652;42.274;-71.436;2023-03-01T02:33:00;21.83;19.50;13.20
64861;PMS5003;62652;42.274;-71.436;2023-03-01T02:34:00;17.37;16.97;12.03
64861;PMS5003;62652;42.274;-71.436;2023-03-01T02:35:00;22.37;20.97;12.87
64861;PMS5003;62652;42.274;-71.436;2023-03-01T02:36:00;24.13;21.97;14.80
64861;PMS5003;62652;42.274;-71.436;2023-03-01T02:37:01;28.43;26.00;14.67
64861;PMS5003;62652;42.274;-71.436;2023-03-01T02:38:00;25.80;23.43;15.60
64861;PMS5003;62652;42.274;-71.436;2023-03-01T02:39:00;23.90;21.83;15.03
64861;PMS5003;62652;42.274;-71.436;2023-03-01T02:40:03;28.17;25.23;15.80
64861;PMS5003;62652;42.274;-71.436;2023-03-01T02:41:00;23.17;21.17;14.63
64861;PMS5003;62652;42.274;-71.436;2023-03-01T02:42:00;26.13;24.77;14.63
64861;PMS5003;62652;42.274;-71.436;2023-03-01T02:43:00;21.53;20.30;12.37
64861;PMS5003;62652;42.274;-71.436;2023-03-01T02:44:00;22.50;19.93;12.77
64861;PMS5003;62652;42.274;-71.436;2023-03-01T02:45:00;21.63;20.00;13.17
64861;PMS5003;62652;42.274;-71.436;2023-03-01T02:46:02;22.50;20.80;12.30
64861;PMS5003;62652;42.274;-71.436;2023-03-01T02:47:01;20.90;19.67;12.43
64861;PMS5003;62652;42.274;-71.436;2023-03-01T02:48:00;22.93;21.63;13.67
64861;PMS5003;62652;42.274;-71.436;2023-03-01T02:49:00;21.97;21.07;13.00
64861;PMS5003;62652;42.274;-71.436;2023-03-01T02:50:00;22.30;21.00;12.87
64861;PMS5003;62652;42.274;-71.436;2023-03-01T02:51:03;22.00;21.10;13.73
64861;PMS5003;62652;42.274;-71.436;2023-03-01T02:52:05;22.67;20.33;13.47
64861;PMS5003;62652;42.274;-71.436;2023-03-01T02:53:01;22.67;21.30;12.37
64861;PMS5003;62652;42.274;-71.436;2023-03-01T02:54:05;23.30;22.10;12.63
64861;PMS5003;62652;42.274;-71.436;2023-03-01T02:55:01;24.03;22.70;13.10
64861;PMS5003;62652;42.274;-71.436;2023-03-01T02:56:00;21.80;20.37;13.13
64861;PMS5003;62652;42.274;-71.436;2023-03-01T02:57:00;24.50;22.20;13.47
64861;PMS5003;62652;42.274;-71.436;2023-03-01T02:58:00;21.77;20.63;12.80
64861;PMS5003;62652;42.274;-71.436;2023-03-01T02:59:00;21.93;21.30;12.93
64861;PMS5003;62652;42.274;-71.436;2023-03-01T03:00:02;22.20;21.57;13.57
64861;PMS5003;62652;42.274;-71.436;2023-03-01T03:01:00;23.83;20.83;12.07
64861;PMS5003;62652;42.274;-71.436;2023-03-01T03:02:00;25.63;23.97;12.77
64861;PMS5003;62652;42.274;-71.436;2023-03-01T03:03:00;26.83;23.90;14.70
64861;PMS5003;62652;42.274;-71.436;2023-03-01T03:04:00;26.00;21.00;13.07
64861;PMS5003;62652;42.274;-71.436;2023-03-01T03:05:00;23.17;22.23;13.93
64861;PMS5003;62652;42.274;-71.436;2023-03-01T03:06:00;26.13;24.17;14.57
64861;PMS5003;62652;42.274;-71.436;2023-03-01T03:07:00;23.87;22.43;13.43
64861;PMS5003;62652;42.274;-71.436;2023-03-01T03:08:01;28.27;26.03;14.23
64861;PMS5003;62652;42.274;-71.436;2023-03-01T03:09:00;21.30;21.07;14.20
64861;PMS5003;62652;42.274;-71.436;2023-03-01T03:10:00;22.73;22.33;14.43
64861;PMS5003;62652;42.274;-71.436;2023-03-01T03:11:00;28.33;25.03;13.97
64861;PMS5003;62652;42.274;-71.436;2023-03-01T03:12:00;22.97;22.03;14.53
64861;PMS5003;62652;42.274;-71.436;2023-03-01T03:13:01;22.20;21.67;12.90
64861;PMS5003;62652;42.274;-71.436;2023-03-01T03:14:00;25.33;23.43;13.33
64861;PMS5003;62652;42.274;-71.436;2023-03-01T03:15:00;20.40;19.53;12.53
64861;PMS5003;62652;42.274;-71.436;2023-03-01T03:16:01;24.60;22.40;13.63
64861;PMS5003;62652;42.274;-71.436;2023-03-01T03:17:00;25.10;22.27;12.80
64861;PMS5003;62652;42.274;-71.436;2023-03-01T03:18:00;26.93;23.87;15.17
64861;PMS5003;62652;42.274;-71.436;2023-03-01T03:19:00;27.80;24.60;13.97
64861;PMS5003;62652;42.274;-71.436;2023-03-01T03:20:00;24.30;23.00;12.83
64861;PMS5003;62652;42.274;-71.436;2023-03-01T03:21:00;22.90;21.17;13.10
64861;PMS5003;62652;42.274;-71.436;2023-03-01T03:22:00;21.13;20.63;11.93
64861;PMS5003;62652;42.274;-71.436;2023-03-01T03:23:00;23.93;21.87;13.60
64861;PMS5003;62652;42.274;-71.436;2023-03-01T03:24:00;29.03;26.23;13.63
64861;PMS5003;62652;42.274;-71.436;2023-03-01T03:25:00;29.97;24.67;14.13
64861;PMS5003;62652;42.274;-71.436;2023-03-01T03:26:00;25.23;24.00;12.17
64861;PMS5003;62652;42.274;-71.436;2023-03-01T03:27:00;24.30;21.17;12.17
64861;PMS5003;62652;42.274;-71.436;2023-03-01T03:28:00;22.83;21.67;12.83
64861;PMS5003;62652;42.274;-71.436;2023-03-01T03:29:00;24.20;23.57;14.70
64861;PMS5003;62652;42.274;-71.436;2023-03-01T03:30:00;23.17;20.97;11.87
64861;PMS5003;62652;42.274;-71.436;2023-03-01T03:31:00;26.57;24.43;14.17
64861;PMS5003;62652;42.274;-71.436;2023-03-01T03:32:00;23.00;22.07;12.50
64861;PMS5003;62652;42.274;-71.436;2023-03-01T03:33:00;25.07;22.97;12.87
64861;PMS5003;62652;42.274;-71.436;2023-03-01T03:34:00;21.17;19.83;13.07
64861;PMS5003;62652;42.274;-71.436;2023-03-01T03:35:00;21.27;20.23;13.00
64861;PMS5003;62652;42.274;-71.436;2023-03-01T03:36:00;22.47;20.40;12.70
64861;PMS5003;62652;42.274;-71.436;2023-03-01T03:37:00;25.17;21.23;12.30
64861;PMS5003;62652;42.274;-71.436;2023-03-01T03:38:01;24.53;20.17;13.40
64861;PMS5003;62652;42.274;-71.436;2023-03-01T03:39:00;25.40;23.67;12.23
64861;PMS5003;62652;42.274;-71.436;2023-03-01T03:40:00;26.30;24.83;12.93
64861;PMS5003;62652;42.274;-71.436;2023-03-01T03:41:01;20.30;19.47;11.27
64861;PMS5003;62652;42.274;-71.436;2023-03-01T03:42:01;21.70;20.83;11.33
64861;PMS5003;62652;42.274;-71.436;2023-03-01T03:43:00;27.03;23.17;13.43
64861;PMS5003;62652;42.274;-71.436;2023-03-01T03:44:00;22.60;21.90;11.63
64861;PMS5003;62652;42.274;-71.436;2023-03-01T03:45:00;24.00;21.33;12.67
64861;PMS5003;62652;42.274;-71.436;2023-03-01T03:46:00;20.20;19.37;12.57
64861;PMS5003;62652;42.274;-71.436;2023-03-01T03:47:00;20.37;19.27;12.37
64861;PMS5003;62652;42.274;-71.436;2023-03-01T03:48:00;25.87;22.33;13.90
64861;PMS5003;62652;42.274;-71.436;2023-03-01T03:49:00;26.63;23.27;13.83
64861;PMS5003;62652;42.274;-71.436;2023-03-01T03:50:00;23.90;20.77;12.77
64861;PMS5003;62652;42.274;-71.436;2023-03-01T03:51:00;24.63;23.80;13.70
64861;PMS5003;62652;42.274;-71.436;2023-03-01T03:52:00;20.77;20.37;12.10
64861;PMS5003;62652;42.274;-71.436;2023-03-01T03:53:00;18.70;18.17;11.23
64861;PMS5003;62652;42.274;-71.436;2023-03-01T03:54:00;22.70;20.13;13.10
64861;PMS5003;62652;42.274;-71.436;2023-03-01T03:55:00;23.10;21.27;12.40
64861;PMS5003;62652;42.274;-71.436;2023-03-01T03:56:00;22.67;20.33;12.70
64861;PMS5003;62652;42.274;-71.436;2023-03-01T03:57:00;22.73;20.73;11.77
64861;PMS5003;62652;42.274;-71.436;2023-03-01T03:58:01;24.30;22.47;12.80
64861;PMS5003;62652;42.274;-71.436;2023-03-01T03:59:00;21.53;20.80;13.50
64861;PMS5003;62652;42.274;-71.436;2023-03-01T04:00:00;22.07;20.60;12.63
64861;PMS5003;62652;42.274;-71.436;2023-03-01T04:01:00;21.43;19.93;12.80
64861;PMS5003;62652;42.274;-71.436;2023-03-01T04:02:00;25.20;22.03;13.47
64861;PMS5003;62652;42.274;-71.436;2023-03-01T04:03:00;22.10;20.87;13.13
64861;PMS5003;62652;42.274;-71.436;2023-03-01T04:04:00;22.30;21.03;12.23
64861;PMS5003;62652;42.274;-71.436;2023-03-01T04:05:00;19.93;19.03;12.37
64861;PMS5003;62652;42.274;-71.436;2023-03-01T04:06:00;24.40;20.63;12.33
64861;PMS5003;62652;42.274;-71.436;2023-03-01T04:07:00;22.77;21.07;12.70
64861;PMS5003;62652;42.274;-71.436;2023-03-01T04:08:00;21.87;19.10;13.13
64861;PMS5003;62652;42.274;-71.436;2023-03-01T04:09:00;21.73;20.70;12.20
64861;PMS5003;62652;42.274;-71.436;2023-03-01T04:10:00;21.53;18.80;9.53
64861;PMS5003;62652;42.274;-71.436;2023-03-01T04:11:01;24.10;21.53;11.17
64861;PMS5003;62652;42.274;-71.436;2023-03-01T04:12:00;17.47;13.53;9.27
64861;PMS5003;62652;42.274;-71.436;2023-03-01T04:13:00;17.63;17.03;10.93
64861;PMS5003;62652;42.274;-71.436;2023-03-01T04:14:00;19.87;18.50;11.03
64861;PMS5003;62652;42.274;-71.436;2023-03-01T04:15:00;20.27;19.33;11.93
64861;PMS5003;62652;42.274;-71.436;2023-03-01T04:16:00;18.57;17.30;11.43
64861;PMS5003;62652;42.274;-71.436;2023-03-01T04:17:00;19.20;18.20;10.33
64861;PMS5003;62652;42.274;-71.436;2023-03-01T04:18:00;26.47;25.27;14.30
64861;PMS5003;62652;42.274;-71.436;2023-03-01T04:19:00;20.90;20.17;12.80
64861;PMS5003;62652;42.274;-71.436;2023-03-01T04:20:00;25.03;22.07;11.97
64861;PMS5003;62652;42.274;-71.436;2023-03-01T04:21:00;23.00;20.40;12.20
64861;PMS5003;62652;42.274;-71.436;2023-03-01T04:22:00;26.27;23.50;13.50
64861;PMS5003;62652;42.274;-71.436;2023-03-01T04:23:01;27.03;24.17;14.33
64861;PMS5003;62652;42.274;-71.436;2023-03-01T04:24:00;21.93;20.17;12.93
64861;PMS5003;62652;42.274;-71.436;2023-03-01T04:25:00;20.23;19.13;11.20
64861;PMS5003;62652;42.274;-71.436;2023-03-01T04:26:00;22.27;20.73;12.03
64861;PMS5003;62652;42.274;-71.436;2023-03-01T04:27:00;24.77;21.63;14.13
64861;PMS5003;62652;42.274;-71.436;2023-03-01T04:28:00;21.50;20.00;12.37
64861;PMS5003;62652;42.274;-71.436;2023-03-01T04:29:00;21.43;20.80;12.93
64861;PMS5003;62652;42.274;-71.436;2023-03-01T04:30:00;20.37;18.97;12.43
64861;PMS5003;62652;42.274;-71.436;2023-03-01T04:31:02;23.40;23.10;12.87
64861;PMS5003;62652;42.274;-71.436;2023-03-01T04:32:00;21.50;20.03;12.50
64861;PMS5003;62652;42.274;-71.436;2023-03-01T04:33:00;24.57;22.00;14.03
64861;PMS5003;62652;42.274;-71.436;2023-03-01T04:34:00;26.90;25.47;14.80
64861;PMS5003;62652;42.274;-71.436;2023-03-01T04:35:00;28.17;24.63;13.97
64861;PMS5003;62652;42.274;-71.436;2023-03-01T04:36:00;26.80;23.40;13.17
64861;PMS5003;62652;42.274;-71.436;2023-03-01T04:37:00;21.43;20.73;13.80
64861;PMS5003;62652;42.274;-71.436;2023-03-01T04:38:00;23.03;19.77;12.70
64861;PMS5003;62652;42.274;-71.436;2023-03-01T04:39:00;21.37;20.33;11.57
64861;PMS5003;62652;42.274;-71.436;2023-03-01T04:40:00;23.27;21.70;12.17
64861;PMS5003;62652;42.274;-71.436;2023-03-01T04:41:00;21.10;20.43;12.40
64861;PMS5003;62652;42.274;-71.436;2023-03-01T04:42:00;23.27;20.97;12.90
64861;PMS5003;62652;42.274;-71.436;2023-03-01T04:43:00;22.13;20.27;12.30
64861;PMS5003;62652;42.274;-71.436;2023-03-01T04:44:00;22.77;20.60;13.40
64861;PMS5003;62652;42.274;-71.436;2023-03-01T04:45:00;21.30;19.43;12.30
64861;PMS5003;62652;42.274;-71.436;2023-03-01T04:46:00;24.20;23.27;14.57
64861;PMS5003;62652;42.274;-71.436;2023-03-01T04:47:00;28.20;26.20;15.07
64861;PMS5003;62652;42.274;-71.436;2023-03-01T04:48:00;19.43;18.60;12.07
64861;PMS5003;62652;42.274;-71.436;2023-03-01T04:49:00;24.00;22.53;13.90
64861;PMS5003;62652;42.274;-71.436;2023-03-01T04:50:00;22.27;21.57;13.27
64861;PMS5003;62652;42.274;-71.436;2023-03-01T04:51:00;22.03;20.77;13.50
64861;PMS5003;62652;42.274;-71.436;2023-03-01T04:52:00;23.77;21.10;14.37
64861;PMS5003;62652;42.274;-71.436;2023-03-01T04:53:00;22.40;21.30;14.43
64861;PMS5003;62652;42.274;-71.436;2023-03-01T04:54:00;22.03;20.03;11.60
64861;PMS5003;62652;42.274;-71.436;2023-03-01T04:55:00;25.67;22.07;13.20
64861;PMS5003;62652;42.274;-71.436;2023-03-01T04:56:00;24.97;22.87;13.60
64861;PMS5003;62652;42.274;-71.436;2023-03-01T04:57:00;23.20;22.07;13.63
64861;PMS5003;62652;42.274;-71.436;2023-03-01T04:58:00;25.80;24.57;16.27
64861;PMS5003;62652;42.274;-71.436;2023-03-01T04:59:01;27.87;26.03;17.17
64861;PMS5003;62652;42.274;-71.436;2023-03-01T05:00:00;25.87;23.57;16.47
64861;PMS5003;62652;42.274;-71.436;2023-03-01T05:01:00;23.47;21.33;13.27
64861;PMS5003;62652;42.274;-71.436;2023-03-01T05:02:00;23.30;21.57;13.20
64861;PMS5003;62652;42.274;-71.436;2023-03-01T05:03:00;23.63;20.53;13.10
64861;PMS5003;62652;42.274;-71.436;2023-03-01T05:04:00;26.67;21.83;11.80
64861;PMS5003;62652;42.274;-71.436;2023-03-01T05:05:00;28.17;22.93;12.87
64861;PMS5003;62652;42.274;-71.436;2023-03-01T05:06:00;24.80;21.33;12.93
64861;PMS5003;62652;42.274;-71.436;2023-03-01T05:07:00;23.23;22.20;12.87
64861;PMS5003;62652;42.274;-71.436;2023-03-01T05:08:01;23.70;23.10;12.90
64861;PMS5003;62652;42.274;-71.436;2023-03-01T05:09:00;26.67;22.43;12.10
64861;PMS5003;62652;42.274;-71.436;2023-03-01T05:10:00;20.73;20.00;13.73
64861;PMS5003;62652;42.274;-71.436;2023-03-01T05:11:00;23.50;21.83;11.87
64861;PMS5003;62652;42.274;-71.436;2023-03-01T05:12:00;23.00;21.33;12.37
64861;PMS5003;62652;42.274;-71.436;2023-03-01T05:13:00;23.67;21.37;12.23
64861;PMS5003;62652;42.274;-71.436;2023-03-01T05:14:00;28.87;25.30;13.60
64861;PMS5003;62652;42.274;-71.436;2023-03-01T05:15:00;21.80;20.80;13.47
64861;PMS5003;62652;42.274;-71.436;2023-03-01T05:16:01;27.93;26.47;18.37
64861;PMS5003;62652;42.274;-71.436;2023-03-01T05:17:00;25.60;25.07;16.00
64861;PMS5003;62652;42.274;-71.436;2023-03-01T05:18:00;23.90;21.00;12.53
64861;PMS5003;62652;42.274;-71.436;2023-03-01T05:19:00;22.50;21.87;11.77
64861;PMS5003;62652;42.274;-71.436;2023-03-01T05:20:00;23.60;20.93;12.83
64861;PMS5003;62652;42.274;-71.436;2023-03-01T05:21:02;22.30;21.20;13.90
64861;PMS5003;62652;42.274;-71.436;2023-03-01T05:22:00;25.63;23.47;15.23
64861;PMS5003;62652;42.274;-71.436;2023-03-01T05:23:00;26.83;23.13;15.60
64861;PMS5003;62652;42.274;-71.436;2023-03-01T05:24:00;24.63;23.90;13.50
64861;PMS5003;62652;42.274;-71.436;2023-03-01T05:25:00;27.30;25.23;14.47
64861;PMS5003;62652;42.274;-71.436;2023-03-01T05:26:00;25.70;24.80;14.07
64861;PMS5003;62652;42.274;-71.436;2023-03-01T05:27:00;28.93;25.47;15.17
64861;PMS5003;62652;42.274;-71.436;2023-03-01T05:28:00;26.47;22.60;14.23
64861;PMS5003;62652;42.274;-71.436;2023-03-01T05:29:00;26.23;23.97;15.10
64861;PMS5003;62652;42.274;-71.436;2023-03-01T05:30:00;25.87;22.97;13.53